createdAt,value
2024-05-09T00:01:37.552Z,9.09
2024-05-09T00:04:08.101Z,9.10
2024-05-09T00:06:38.584Z,9.07
2024-05-09T00:09:08.692Z,9.05
2024-05-09T00:11:41.680Z,9.05
2024-05-09T00:14:12.001Z,9.05
2024-05-09T00:16:42.337Z,9.07
2024-05-09T00:19:12.669Z,8.98
2024-05-09T00:21:45.673Z,8.72
2024-05-09T00:24:15.884Z,8.91
2024-05-09T00:26:48.709Z,8.90
2024-05-09T00:29:19.048Z,8.86
2024-05-09T00:31:49.406Z,8.83
2024-05-09T00:34:19.743Z,8.80
2024-05-09T00:36:50.077Z,8.82
2024-05-09T00:39:20.248Z,8.74
2024-05-09T00:41:53.114Z,8.79
2024-05-09T00:44:23.411Z,8.77
2024-05-09T00:46:56.239Z,8.73
2024-05-09T00:49:28.471Z,8.69
2024-05-09T00:52:00.583Z,8.67
2024-05-09T00:54:31.410Z,8.56
2024-05-09T00:57:06.065Z,8.67
2024-05-09T00:59:36.858Z,8.49
2024-05-09T01:02:08.772Z,8.51
2024-05-09T01:04:39.029Z,8.52
2024-05-09T01:07:09.601Z,8.53
2024-05-09T01:09:39.913Z,8.50
2024-05-09T01:12:13.240Z,8.49
2024-05-09T01:14:43.621Z,8.49
2024-05-09T01:17:14.564Z,8.51
2024-05-09T01:19:45.707Z,8.46
2024-05-09T01:22:15.936Z,8.45
2024-05-09T01:24:49.664Z,8.45
2024-05-09T01:27:19.892Z,8.40
2024-05-09T01:29:50.175Z,8.39
2024-05-09T01:32:20.400Z,8.41
2024-05-09T01:34:50.592Z,8.33
2024-05-09T01:37:20.781Z,8.41
2024-05-09T01:39:53.600Z,8.19
2024-05-09T01:42:23.798Z,8.16
2024-05-09T01:44:54.209Z,8.13
2024-05-09T01:47:24.558Z,8.15
2024-05-09T01:49:55.069Z,8.10
2024-05-09T01:52:25.346Z,8.06
2024-05-09T01:55:00.782Z,8.03
2024-05-09T01:57:32.214Z,8.03
2024-05-09T02:00:02.343Z,8.01
2024-05-09T02:02:40.768Z,7.99
2024-05-09T02:05:11.284Z,7.95
2024-05-09T02:07:41.568Z,7.93
2024-05-09T02:10:20.419Z,7.88
2024-05-09T02:12:56.408Z,7.99
2024-05-09T02:15:26.628Z,8.02
2024-05-09T02:17:57.109Z,8.01
2024-05-09T02:20:33.874Z,8.01
2024-05-09T02:23:07.497Z,7.80
2024-05-09T02:25:40.651Z,7.88
2024-05-09T02:28:11.074Z,7.82
2024-05-09T02:30:42.458Z,7.79
2024-05-09T02:33:14.462Z,7.78
2024-05-09T02:35:45.759Z,7.74
2024-05-09T02:38:13.824Z,7.73
2024-05-09T02:40:46.656Z,7.86
2024-05-09T02:43:14.254Z,7.76
2024-05-09T02:45:44.976Z,7.68
2024-05-09T02:48:14.133Z,7.74
2024-05-09T02:50:45.161Z,7.76
2024-05-09T02:53:14.067Z,7.68
2024-05-09T02:55:47.459Z,7.55
2024-05-09T02:58:15.197Z,7.49
2024-05-09T03:00:45.376Z,7.47
2024-05-09T03:03:15.085Z,7.49
2024-05-09T03:05:46.489Z,7.41
2024-05-09T03:08:14.619Z,7.42
2024-05-09T03:10:47.544Z,7.39
2024-05-09T03:13:16.193Z,7.38
2024-05-09T03:15:46.966Z,7.33
2024-05-09T03:18:16.012Z,7.30
2024-05-09T03:20:47.099Z,7.26
2024-05-09T03:23:14.762Z,7.08
2024-05-09T03:25:47.577Z,7.10
2024-05-09T03:28:15.140Z,7.12
2024-05-09T03:30:45.430Z,7.07
2024-05-09T03:33:15.595Z,7.21
2024-05-09T03:35:47.070Z,7.22
2024-05-09T03:38:17.648Z,7.17
2024-05-09T03:40:52.441Z,7.09
2024-05-09T03:43:23.238Z,7.21
2024-05-09T03:45:50.950Z,7.17
2024-05-09T03:48:21.337Z,7.00
2024-05-09T03:50:49.357Z,7.09
2024-05-09T03:53:19.903Z,7.02
2024-05-09T03:55:50.759Z,7.09
2024-05-09T03:58:21.124Z,7.10
2024-05-09T04:00:48.754Z,7.08
2024-05-09T04:03:19.238Z,7.14
2024-05-09T04:05:47.005Z,7.14
2024-05-09T04:08:17.861Z,7.21
2024-05-09T04:10:46.375Z,7.19
2024-05-09T04:13:19.284Z,7.15
2024-05-09T04:15:46.788Z,7.27
2024-05-09T04:18:19.447Z,7.30
2024-05-09T04:20:47.399Z,7.35
2024-05-09T04:23:17.726Z,7.36
2024-05-09T04:25:45.898Z,7.26
2024-05-09T04:28:19.206Z,7.33
2024-05-09T04:30:46.805Z,7.44
2024-05-09T04:33:18.717Z,7.49
2024-05-09T04:35:47.270Z,7.49
2024-05-09T04:38:18.229Z,7.65
2024-05-09T04:40:46.023Z,7.67
2024-05-09T04:43:22.237Z,7.68
2024-05-09T04:45:50.784Z,7.73
2024-05-09T04:48:21.088Z,7.78
2024-05-09T04:50:48.807Z,7.86
2024-05-09T04:53:19.480Z,7.94
2024-05-09T04:55:47.302Z,8.05
2024-05-09T04:58:17.515Z,8.03
2024-05-09T05:00:47.808Z,8.28
2024-05-09T05:03:18.636Z,8.34
2024-05-09T05:05:46.607Z,8.49
2024-05-09T05:08:18.969Z,8.51
2024-05-09T05:10:48.223Z,8.48
2024-05-09T05:13:20.951Z,8.57
2024-05-09T05:15:56.933Z,8.65
2024-05-09T05:18:29.572Z,8.67
2024-05-09T05:20:57.707Z,8.90
2024-05-09T05:23:28.542Z,8.97
2024-05-09T05:25:56.375Z,9.03
2024-05-09T05:28:26.842Z,9.24
2024-05-09T05:30:56.942Z,9.27
2024-05-09T05:33:27.361Z,9.26
2024-05-09T05:35:54.970Z,9.08
2024-05-09T05:38:28.102Z,9.04
2024-05-09T05:40:56.968Z,9.17
2024-05-09T05:43:27.581Z,9.33
2024-05-09T05:45:57.871Z,9.58
2024-05-09T05:48:28.350Z,9.71
2024-05-09T05:50:56.333Z,9.86
2024-05-09T05:53:26.719Z,9.97
2024-05-09T05:55:54.884Z,10.08
2024-05-09T05:58:25.169Z,10.26
2024-05-09T06:00:53.748Z,10.38
2024-05-09T06:03:28.631Z,10.54
2024-05-09T06:05:56.592Z,10.50
2024-05-09T06:08:30.192Z,10.64
2024-05-09T06:10:58.214Z,10.81
2024-05-09T06:13:28.629Z,10.80
2024-05-09T06:15:56.267Z,10.83
2024-05-09T06:18:30.150Z,10.96
2024-05-09T06:20:58.149Z,11.04
2024-05-09T06:23:28.416Z,11.17
2024-05-09T06:25:56.179Z,11.26
2024-05-09T06:28:26.508Z,11.29
2024-05-09T06:30:54.033Z,11.41
2024-05-09T06:33:24.749Z,11.43
2024-05-09T06:35:59.421Z,11.55
2024-05-09T06:38:29.760Z,11.52
2024-05-09T06:40:57.858Z,11.54
2024-05-09T06:43:28.021Z,11.36
2024-05-09T06:45:55.563Z,11.62
2024-05-09T06:48:25.966Z,11.59
2024-05-09T06:50:56.337Z,11.83
2024-05-09T06:53:26.703Z,11.83
2024-05-09T06:55:54.381Z,11.97
2024-05-09T06:58:24.742Z,12.07
2024-05-09T07:00:55.376Z,12.26
2024-05-09T07:03:25.771Z,12.15
2024-05-09T07:05:56.000Z,12.32
2024-05-09T07:08:26.222Z,12.23
2024-05-09T07:10:54.084Z,12.38
2024-05-09T07:13:24.454Z,12.27
2024-05-09T07:15:52.076Z,12.20
2024-05-09T07:18:22.622Z,12.34
2024-05-09T07:20:50.834Z,12.40
2024-05-09T07:23:23.828Z,12.61
2024-05-09T07:25:51.850Z,12.70
2024-05-09T07:28:23.874Z,12.63
2024-05-09T07:30:51.498Z,12.57
2024-05-09T07:33:24.122Z,12.70
2024-05-09T07:35:52.763Z,13.04
2024-05-09T07:38:25.899Z,13.22
2024-05-09T07:40:53.479Z,13.37
2024-05-09T07:43:23.614Z,13.42
2024-05-09T07:45:54.304Z,13.51
2024-05-09T07:50:00.320Z,13.77
2024-05-09T07:53:53.479Z,15.03
2024-05-09T07:56:24.521Z,15.21
2024-05-09T07:58:56.540Z,15.82
2024-05-09T08:01:26.529Z,16.38
2024-05-09T08:03:57.555Z,17.13
2024-05-09T08:06:26.023Z,17.39
2024-05-09T08:09:03.029Z,17.82
2024-05-09T08:11:35.317Z,18.49
2024-05-09T08:14:05.557Z,18.75
2024-05-09T08:16:33.486Z,18.81
2024-05-09T08:19:04.077Z,19.43
2024-05-09T08:21:31.707Z,20.14
2024-05-09T08:24:04.511Z,20.43
2024-05-09T08:26:32.064Z,20.91
2024-05-09T08:29:02.309Z,21.34
2024-05-09T08:31:30.069Z,21.04
2024-05-09T08:34:00.612Z,21.24
2024-05-09T08:36:28.335Z,21.26
2024-05-09T08:38:58.780Z,21.64
2024-05-09T08:41:30.243Z,21.57
2024-05-09T08:44:00.529Z,21.58
2024-05-09T08:46:30.474Z,21.62
2024-05-09T08:49:02.587Z,21.74
2024-05-09T08:51:30.341Z,22.06
2024-05-09T08:54:00.610Z,21.71
2024-05-09T08:56:34.487Z,21.87
2024-05-09T08:59:09.075Z,21.98
2024-05-09T09:01:38.024Z,21.83
2024-05-09T09:04:12.820Z,21.47
2024-05-09T09:06:40.723Z,21.47
2024-05-09T09:09:13.178Z,21.60
2024-05-09T09:11:43.688Z,21.65
2024-05-09T09:14:14.072Z,21.96
2024-05-09T09:16:41.586Z,21.77
2024-05-09T09:19:12.049Z,21.80
2024-05-09T09:21:39.771Z,22.17
2024-05-09T09:24:10.717Z,22.51
2024-05-09T09:26:38.375Z,22.07
2024-05-09T09:29:11.154Z,22.06
2024-05-09T09:31:39.398Z,21.98
2024-05-09T09:34:11.493Z,22.05
2024-05-09T09:36:43.030Z,22.30
2024-05-09T09:39:13.487Z,22.10
2024-05-09T09:41:44.300Z,22.31
2024-05-09T09:44:18.056Z,22.15
2024-05-09T09:46:46.895Z,21.80
2024-05-09T09:49:18.599Z,21.99
2024-05-09T09:51:47.489Z,21.90
2024-05-09T09:54:17.969Z,21.84
2024-05-09T09:56:48.450Z,21.62
2024-05-09T09:59:22.455Z,22.27
2024-05-09T10:01:50.343Z,22.51
2024-05-09T10:04:21.420Z,22.28
2024-05-09T10:06:53.333Z,22.78
2024-05-09T10:09:23.774Z,22.52
2024-05-09T10:11:59.590Z,22.79
2024-05-09T10:14:34.675Z,22.97
2024-05-09T10:17:06.121Z,23.08
2024-05-09T10:19:36.468Z,23.27
2024-05-09T10:22:05.939Z,22.86
2024-05-09T10:24:52.159Z,22.69
2024-05-09T10:27:27.479Z,22.82
2024-05-09T10:30:06.856Z,22.51
2024-05-09T10:32:40.545Z,22.22
2024-05-09T10:35:15.123Z,21.95
2024-05-09T10:37:42.842Z,21.94
2024-05-09T10:40:26.131Z,22.62
2024-05-09T10:43:02.593Z,22.33
2024-05-09T10:45:38.803Z,22.20
2024-05-09T10:48:08.388Z,22.36
2024-05-09T10:50:43.906Z,22.34
2024-05-09T10:53:11.412Z,22.91
2024-05-09T10:55:41.533Z,23.12
2024-05-09T10:58:17.575Z,22.77
2024-05-09T11:00:50.715Z,23.25
2024-05-09T11:03:18.949Z,23.28
2024-05-09T11:05:50.091Z,23.18
2024-05-09T11:08:18.295Z,22.50
2024-05-09T11:10:49.180Z,22.33
2024-05-09T11:13:28.037Z,21.85
2024-05-09T11:16:01.248Z,21.80
2024-05-09T11:18:35.175Z,21.74
2024-05-09T11:21:15.564Z,21.68
2024-05-09T11:23:43.173Z,21.70
2024-05-09T11:26:15.275Z,21.91
2024-05-09T11:28:45.595Z,22.10
2024-05-09T11:31:18.762Z,22.10
2024-05-09T11:33:47.108Z,22.11
2024-05-09T11:36:18.042Z,22.47
2024-05-09T11:38:45.911Z,22.90
2024-05-09T11:41:20.684Z,22.94
2024-05-09T11:43:48.253Z,22.70
2024-05-09T11:46:21.400Z,23.16
2024-05-09T11:48:49.256Z,23.11
2024-05-09T11:51:19.674Z,23.20
2024-05-09T11:53:47.226Z,23.02
2024-05-09T11:56:17.735Z,22.98
2024-05-09T11:58:45.408Z,22.48
2024-05-09T12:01:15.654Z,22.02
2024-05-09T12:03:46.080Z,21.94
2024-05-09T12:06:16.962Z,21.88
2024-05-09T12:08:44.748Z,22.36
2024-05-09T12:11:16.630Z,22.63
2024-05-09T12:13:44.505Z,22.32
2024-05-09T12:16:14.790Z,21.90
2024-05-09T12:18:45.177Z,22.01
2024-05-09T12:21:17.456Z,21.67
2024-05-09T12:23:45.115Z,21.83
2024-05-09T12:26:15.915Z,21.68
2024-05-09T12:28:43.869Z,21.75
2024-05-09T12:31:14.082Z,21.26
2024-05-09T12:33:44.657Z,21.06
2024-05-09T12:36:14.882Z,21.20
2024-05-09T12:38:42.366Z,20.82
2024-05-09T12:41:13.153Z,21.29
2024-05-09T12:43:40.836Z,21.34
2024-05-09T12:46:11.314Z,21.48
2024-05-09T12:48:39.137Z,21.86
2024-05-09T12:51:12.192Z,22.31
2024-05-09T12:53:39.713Z,22.32
2024-05-09T12:56:10.831Z,22.14
2024-05-09T12:58:38.951Z,22.02
2024-05-09T13:01:09.324Z,21.60
2024-05-09T13:03:37.230Z,21.83
2024-05-09T13:06:07.967Z,21.81
2024-05-09T13:08:38.251Z,21.80
2024-05-09T13:11:08.819Z,21.12
2024-05-09T13:13:36.474Z,21.55
2024-05-09T13:16:07.442Z,21.45
2024-05-09T13:18:36.470Z,21.63
2024-05-09T13:21:07.094Z,21.83
2024-05-09T13:23:38.035Z,21.80
2024-05-09T13:26:08.462Z,21.81
2024-05-09T13:28:36.131Z,21.71
2024-05-09T13:31:06.481Z,21.19
2024-05-09T13:33:34.645Z,20.95
2024-05-09T13:36:04.937Z,21.37
2024-05-09T13:38:32.532Z,21.13
2024-05-09T13:41:05.580Z,20.76
2024-05-09T13:43:33.243Z,20.75
2024-05-09T13:46:03.636Z,20.72
2024-05-09T13:48:31.789Z,20.24
2024-05-09T13:51:02.248Z,20.70
2024-05-09T13:53:29.735Z,20.45
2024-05-09T13:55:59.944Z,20.59
2024-05-09T13:58:30.081Z,20.63
2024-05-09T14:01:00.385Z,20.59
2024-05-09T14:03:30.035Z,20.45
2024-05-09T14:06:00.601Z,20.43
2024-05-09T14:08:29.365Z,20.27
2024-05-09T14:10:59.736Z,20.30
2024-05-09T14:13:30.099Z,20.52
2024-05-09T14:16:00.727Z,20.64
2024-05-09T14:18:28.558Z,20.64
2024-05-09T14:20:59.018Z,20.41
2024-05-09T14:23:26.846Z,20.43
2024-05-09T14:25:57.766Z,20.51
2024-05-09T14:28:27.042Z,20.53
2024-05-09T14:31:01.369Z,20.21
2024-05-09T14:33:30.739Z,20.53
2024-05-09T14:36:01.021Z,20.55
2024-05-09T14:38:29.038Z,20.90
2024-05-09T14:40:59.316Z,21.30
2024-05-09T14:43:27.131Z,21.59
2024-05-09T14:46:00.215Z,22.04
2024-05-09T14:48:28.275Z,22.20
2024-05-09T14:50:58.479Z,22.25
2024-05-09T14:53:27.059Z,22.19
2024-05-09T14:55:57.572Z,22.08
2024-05-09T14:58:26.630Z,21.70
2024-05-09T15:00:59.726Z,21.75
2024-05-09T15:03:27.687Z,21.87
2024-05-09T15:05:58.674Z,22.06
2024-05-09T15:08:26.291Z,21.63
2024-05-09T15:10:56.536Z,21.24
2024-05-09T15:13:25.708Z,21.08
2024-05-09T15:15:56.300Z,21.18
2024-05-09T15:18:26.765Z,21.56
2024-05-09T15:20:57.303Z,21.50
2024-05-09T15:23:25.662Z,21.78
2024-05-09T15:25:56.074Z,21.58
2024-05-09T15:28:23.846Z,21.44
2024-05-09T15:30:54.163Z,21.49
2024-05-09T15:33:21.952Z,21.62
2024-05-09T15:35:54.794Z,21.50
2024-05-09T15:38:22.490Z,21.36
2024-05-09T15:40:52.824Z,21.23
2024-05-09T15:43:20.510Z,21.31
2024-05-09T15:45:51.032Z,20.84
2024-05-09T15:48:19.364Z,20.94
2024-05-09T15:50:50.251Z,21.30
2024-05-09T15:53:20.667Z,20.94
2024-05-09T15:55:50.804Z,20.77
2024-05-09T15:58:18.767Z,20.91
2024-05-09T16:00:51.490Z,21.17
2024-05-09T16:03:21.265Z,20.98
2024-05-09T16:05:52.923Z,21.06
2024-05-09T16:08:23.603Z,21.19
2024-05-09T16:10:54.446Z,20.72
2024-05-09T16:13:22.474Z,20.55
2024-05-09T16:15:53.048Z,20.51
2024-05-09T16:18:21.551Z,20.84
2024-05-09T16:20:59.408Z,20.68
2024-05-09T16:23:29.802Z,20.62
2024-05-09T16:26:00.302Z,20.69
2024-05-09T16:28:28.382Z,20.61
2024-05-09T16:30:59.496Z,20.29
2024-05-09T16:33:27.357Z,20.44
2024-05-09T16:35:57.789Z,20.16
2024-05-09T16:38:28.262Z,20.09
2024-05-09T16:40:58.688Z,20.29
2024-05-09T16:43:26.410Z,20.34
2024-05-09T16:45:57.057Z,20.34
2024-05-09T16:48:24.953Z,20.31
2024-05-09T16:50:55.189Z,20.37
2024-05-09T16:53:23.288Z,20.37
2024-05-09T16:55:56.707Z,20.39
2024-05-09T16:58:24.915Z,20.00
2024-05-09T17:00:55.162Z,20.17
2024-05-09T17:03:23.658Z,19.88
2024-05-09T17:05:54.054Z,20.00
2024-05-09T17:08:21.814Z,19.97
2024-05-09T17:10:52.598Z,19.91
2024-05-09T17:13:23.213Z,19.46
2024-05-09T17:15:53.543Z,19.52
2024-05-09T17:18:23.926Z,19.11
2024-05-09T17:20:52.532Z,19.20
2024-05-09T17:23:22.843Z,19.13
2024-05-09T17:25:50.590Z,19.25
2024-05-09T17:28:21.477Z,19.50
2024-05-09T17:30:51.866Z,19.49
2024-05-09T17:33:22.394Z,19.25
2024-05-09T17:35:51.377Z,19.17
2024-05-09T17:38:23.084Z,19.49
2024-05-09T17:40:52.400Z,19.58
2024-05-09T17:43:22.755Z,19.59
2024-05-09T17:45:53.173Z,19.61
2024-05-09T17:48:23.539Z,19.48
2024-05-09T17:50:51.900Z,19.09
2024-05-09T17:53:22.634Z,18.88
2024-05-09T17:55:50.378Z,18.79
2024-05-09T17:58:20.870Z,18.66
2024-05-09T18:00:48.742Z,18.51
2024-05-09T18:03:23.277Z,18.56
2024-05-09T18:05:51.273Z,18.50
2024-05-09T18:08:21.561Z,18.40
2024-05-09T18:10:50.650Z,18.27
2024-05-09T18:13:22.238Z,18.22
2024-05-09T18:15:50.280Z,18.10
2024-05-09T18:18:23.535Z,17.99
2024-05-09T18:20:51.323Z,17.96
2024-05-09T18:23:21.460Z,17.91
2024-05-09T18:25:49.253Z,17.79
2024-05-09T18:28:19.580Z,17.69
2024-05-09T18:30:47.230Z,17.56
2024-05-09T18:33:18.058Z,17.49
2024-05-09T18:35:48.820Z,17.35
2024-05-09T18:38:19.322Z,17.23
2024-05-09T18:40:48.991Z,17.10
2024-05-09T18:43:26.226Z,16.99
2024-05-09T18:45:58.914Z,16.81
2024-05-09T18:48:29.341Z,16.72
2024-05-09T18:50:59.822Z,16.73
2024-05-09T18:53:30.168Z,16.69
2024-05-09T18:55:57.905Z,16.53
2024-05-09T18:58:28.194Z,16.50
2024-05-09T19:00:57.730Z,16.38
2024-05-09T19:03:29.708Z,16.32
2024-05-09T19:06:00.379Z,16.25
2024-05-09T19:08:31.129Z,16.15
2024-05-09T19:10:59.038Z,16.05
2024-05-09T19:13:29.713Z,16.00
2024-05-09T19:15:57.674Z,15.87
2024-05-09T19:18:28.226Z,15.84
2024-05-09T19:20:55.884Z,15.79
2024-05-09T19:23:29.175Z,15.78
2024-05-09T19:25:57.258Z,15.77
2024-05-09T19:28:27.549Z,15.73
2024-05-09T19:30:55.472Z,15.76
2024-05-09T19:33:25.788Z,15.78
2024-05-09T19:35:53.363Z,15.88
2024-05-09T19:38:23.700Z,15.85
2024-05-09T19:40:54.265Z,15.87
2024-05-09T19:43:24.662Z,16.01
2024-05-09T19:45:52.382Z,16.04
2024-05-09T19:48:23.020Z,16.00
2024-05-09T19:50:53.027Z,16.07
2024-05-09T19:53:23.649Z,16.07
2024-05-09T19:55:53.913Z,16.02
2024-05-09T19:58:24.870Z,16.09
2024-05-09T20:00:52.716Z,16.00
2024-05-09T20:03:22.953Z,16.05
2024-05-09T20:05:50.605Z,15.97
2024-05-09T20:08:20.749Z,15.97
2024-05-09T20:10:48.457Z,15.89
2024-05-09T20:13:21.524Z,15.92
2024-05-09T20:15:49.863Z,15.83
2024-05-09T20:18:20.660Z,15.75
2024-05-09T20:20:50.714Z,15.71
2024-05-09T20:23:22.694Z,15.49
2024-05-09T20:25:50.211Z,15.54
2024-05-09T20:28:23.204Z,15.51
2024-05-09T20:30:51.563Z,15.48
2024-05-09T20:33:21.778Z,15.40
2024-05-09T20:35:49.293Z,15.33
2024-05-09T20:38:19.500Z,15.22
2024-05-09T20:40:47.406Z,15.08
2024-05-09T20:43:17.792Z,14.85
2024-05-09T20:45:47.987Z,14.44
2024-05-09T20:48:18.457Z,14.30
2024-05-09T20:50:46.138Z,14.39
2024-05-09T20:53:16.686Z,14.45
2024-05-09T20:55:45.459Z,14.35
2024-05-09T20:58:16.000Z,14.33
2024-05-09T21:00:45.799Z,14.25
2024-05-09T21:03:19.390Z,14.12
2024-05-09T21:05:47.703Z,13.95
2024-05-09T21:08:18.799Z,13.64
2024-05-09T21:10:46.448Z,13.73
2024-05-09T21:13:16.805Z,13.58
2024-05-09T21:15:44.610Z,13.65
2024-05-09T21:18:15.083Z,13.59
2024-05-09T21:20:48.059Z,13.41
2024-05-09T21:23:15.584Z,13.55
2024-05-09T21:25:45.744Z,13.35
2024-05-09T21:28:14.846Z,13.32
2024-05-09T21:30:45.179Z,13.30
2024-05-09T21:33:14.376Z,13.17
2024-05-09T21:35:48.086Z,13.11
2024-05-09T21:38:15.923Z,13.14
2024-05-09T21:40:46.677Z,12.99
2024-05-09T21:43:14.638Z,12.86
2024-05-09T21:45:45.186Z,12.82
2024-05-09T21:48:13.589Z,12.67
2024-05-09T21:50:44.577Z,12.52
2024-05-09T21:53:14.948Z,12.65
2024-05-09T21:55:45.248Z,12.63
2024-05-09T21:58:14.098Z,12.51
2024-05-09T22:00:46.508Z,12.48
2024-05-09T22:03:14.773Z,12.65
2024-05-09T22:05:45.568Z,12.64
2024-05-09T22:08:15.857Z,12.67
2024-05-09T22:10:46.709Z,12.62
2024-05-09T22:13:16.091Z,12.62
2024-05-09T22:15:46.390Z,12.67
2024-05-09T22:18:14.514Z,12.57
2024-05-09T22:20:46.334Z,12.72
2024-05-09T22:23:17.104Z,12.70
2024-05-09T22:25:47.391Z,12.58
2024-05-09T22:28:15.818Z,12.36
2024-05-09T22:30:47.441Z,12.53
2024-05-09T22:33:15.884Z,12.67
2024-05-09T22:35:47.450Z,12.66
2024-05-09T22:38:17.879Z,12.73
2024-05-09T22:40:49.856Z,12.81
2024-05-09T22:43:19.979Z,12.84
2024-05-09T22:45:51.138Z,12.68
2024-05-09T22:48:19.526Z,12.94
2024-05-09T22:50:49.979Z,12.98
2024-05-09T22:53:22.088Z,13.03
2024-05-09T22:55:52.326Z,13.05
2024-05-09T22:58:20.788Z,13.03
2024-05-09T23:00:51.276Z,12.99
2024-05-09T23:03:21.525Z,13.12
2024-05-09T23:05:52.033Z,13.17
2024-05-09T23:08:22.124Z,13.20
2024-05-09T23:10:52.575Z,13.12
2024-05-09T23:13:20.455Z,13.14
2024-05-09T23:15:51.469Z,13.05
2024-05-09T23:18:19.279Z,13.11
2024-05-09T23:20:49.647Z,12.92
2024-05-09T23:23:18.449Z,12.90
2024-05-09T23:25:52.744Z,12.87
2024-05-09T23:28:20.489Z,12.95
2024-05-09T23:30:50.785Z,12.90
2024-05-09T23:33:18.885Z,12.89
2024-05-09T23:35:49.174Z,12.86
2024-05-09T23:38:16.887Z,12.77
2024-05-09T23:40:50.424Z,12.49
2024-05-09T23:43:18.138Z,12.38
2024-05-09T23:45:48.353Z,12.19
2024-05-09T23:48:16.153Z,12.27
2024-05-09T23:50:46.348Z,12.26
2024-05-09T23:53:14.403Z,12.32
2024-05-09T23:55:44.613Z,12.13
2024-05-09T23:58:14.839Z,12.20
